Christina O — C6FN7 — position and weather

sailwx.info

Track history (hours):
 
Tides and Currents Weather Stations Pressure Air Temp Water Temp Dewpoint Dewpoint Depression Visibility Wind Speed Wind Dir Waves Ship Positions

Christina O

Operator: V Ships Leisure SAM

Last reported at 2014-Nov-22 03:18 UTC. Time now 2014-Nov-27 23:11 UTC.
Position N 17°58' W 063°05'.

Length 186 m; draft 6.1 m.

Type: Ship. MMSI: 308322000.

Date/timePositionNaut miles runAvg speedWind from/ knotsBaromVisibWave heightAir tempDewpointWater temp
2014-Nov-22 03:18N 17°58' W 063°05'3 0.4
2014-Nov-21 19:12N 18°01' W 063°03'0 0.0
2014-Nov-21 16:29N 18°01' W 063°03'0 0.0
2014-Nov-21 15:29N 18°01' W 063°03'0 0.0
2014-Nov-21 14:33N 18°01' W 063°03'0 0.0
2014-Nov-21 13:30N 18°01' W 063°03'0 0.0
2014-Nov-21 12:32N 18°01' W 063°03'9 6.5
2014-Nov-21 11:11N 17°52' W 063°02'3 0.1
2014-Nov-20 09:28N 17°54' W 063°04'13 9.8
2014-Nov-20 08:06N 17°52' W 063°18'9 9.9
2014-Nov-20 07:13N 17°50' W 063°27'710.0
2014-Nov-20 06:33N 17°49' W 063°34'10 9.9
2014-Nov-20 05:32N 17°48' W 063°45'  
2014-Nov-16 23:32N 18°11' W 063°37'8 7.3
2014-Nov-16 22:27N 18°15' W 063°31'9 4.6
2014-Nov-16 20:30N 18°18' W 063°21'9 8.6
2014-Nov-16 19:26N 18°10' W 063°17'8 7.5
2014-Nov-16 18:26N 18°03' W 063°14'6 7.2
2014-Nov-16 17:32N 17°58' W 063°09'10 7.4
2014-Nov-16 16:13N 17°53' W 063°00'2 2.5
2014-Nov-16 15:27N 17°52' W 062°59'  
2014-Nov-14 09:29N 17°48' W 063°34'1717.8
2014-Nov-14 08:32N 17°53' W 063°51'18 0.4
2014-Nov-12 06:14N 18°08' W 063°40'811.2
2014-Nov-12 05:33N 18°06' W 063°32'1511.2
2014-Nov-12 04:12N 18°02' W 063°17'811.3
2014-Nov-12 03:29N 17°60' W 063°09'  
Track history (hours):
 
Tides and Currents Weather Stations Pressure Air Temp Water Temp Dewpoint Dewpoint Depression Visibility Wind Speed Wind Dir Waves Ship Positions

Christina O

Operator: V Ships Leisure SAM

Last reported at 2014-Nov-22 03:18 UTC. Time now 2014-Nov-27 23:11 UTC.
Position N 17°58' W 063°05'.

Length 186 m; draft 6.1 m.

Type: Ship. MMSI: 308322000.

Date/timePositionNaut miles runAvg speedWind from/ knotsBaromVisibWave heightAir tempDewpointWater temp
2014-Nov-22 03:18N 17°58' W 063°05'3 0.4
2014-Nov-21 19:12N 18°01' W 063°03'0 0.0
2014-Nov-21 16:29N 18°01' W 063°03'0 0.0
2014-Nov-21 15:29N 18°01' W 063°03'0 0.0
2014-Nov-21 14:33N 18°01' W 063°03'0 0.0
2014-Nov-21 13:30N 18°01' W 063°03'0 0.0
2014-Nov-21 12:32N 18°01' W 063°03'9 6.5
2014-Nov-21 11:11N 17°52' W 063°02'3 0.1
2014-Nov-20 09:28N 17°54' W 063°04'13 9.8
2014-Nov-20 08:06N 17°52' W 063°18'9 9.9
2014-Nov-20 07:13N 17°50' W 063°27'710.0
2014-Nov-20 06:33N 17°49' W 063°34'10 9.9
2014-Nov-20 05:32N 17°48' W 063°45'  
2014-Nov-16 23:32N 18°11' W 063°37'8 7.3
2014-Nov-16 22:27N 18°15' W 063°31'9 4.6
2014-Nov-16 20:30N 18°18' W 063°21'9 8.6
2014-Nov-16 19:26N 18°10' W 063°17'8 7.5
2014-Nov-16 18:26N 18°03' W 063°14'6 7.2
2014-Nov-16 17:32N 17°58' W 063°09'10 7.4
2014-Nov-16 16:13N 17°53' W 063°00'2 2.5
2014-Nov-16 15:27N 17°52' W 062°59'  
2014-Nov-14 09:29N 17°48' W 063°34'1717.8
2014-Nov-14 08:32N 17°53' W 063°51'18 0.4
2014-Nov-12 06:14N 18°08' W 063°40'811.2
2014-Nov-12 05:33N 18°06' W 063°32'1511.2
2014-Nov-12 04:12N 18°02' W 063°17'811.3
2014-Nov-12 03:29N 17°60' W 063°09'  

Dump ship's entire track history